sensor_id;sensor_type;location;lat;lon;timestamp;temperature;humidity
79711;DHT22;69465;51.630;6.570;2023-05-07T00:02:15;16.70;58.30
79711;DHT22;69465;51.630;6.570;2023-05-07T00:04:42;16.70;58.40
79711;DHT22;69465;51.630;6.570;2023-05-07T00:07:08;16.60;58.60
79711;DHT22;69465;51.630;6.570;2023-05-07T00:09:36;16.50;58.70
79711;DHT22;69465;51.630;6.570;2023-05-07T00:12:02;16.50;58.70
79711;DHT22;69465;51.630;6.570;2023-05-07T00:14:29;16.50;58.80
79711;DHT22;69465;51.630;6.570;2023-05-07T00:16:56;16.40;58.90
79711;DHT22;69465;51.630;6.570;2023-05-07T00:19:23;16.40;58.90
79711;DHT22;69465;51.630;6.570;2023-05-07T00:21:49;16.40;59.10
79711;DHT22;69465;51.630;6.570;2023-05-07T00:24:16;16.30;59.20
79711;DHT22;69465;51.630;6.570;2023-05-07T00:26:43;16.30;59.30
79711;DHT22;69465;51.630;6.570;2023-05-07T00:29:10;16.30;59.30
79711;DHT22;69465;51.630;6.570;2023-05-07T00:31:37;16.30;59.50
79711;DHT22;69465;51.630;6.570;2023-05-07T00:34:03;16.30;59.60
79711;DHT22;69465;51.630;6.570;2023-05-07T00:36:30;16.30;59.20
79711;DHT22;69465;51.630;6.570;2023-05-07T00:38:59;16.30;59.20
79711;DHT22;69465;51.630;6.570;2023-05-07T00:41:26;16.30;59.20
79711;DHT22;69465;51.630;6.570;2023-05-07T00:43:53;16.20;59.30
79711;DHT22;69465;51.630;6.570;2023-05-07T00:46:20;16.20;59.60
79711;DHT22;69465;51.630;6.570;2023-05-07T00:48:48;16.20;59.50
79711;DHT22;69465;51.630;6.570;2023-05-07T00:51:15;16.20;59.30
79711;DHT22;69465;51.630;6.570;2023-05-07T00:53:43;16.20;60.20
79711;DHT22;69465;51.630;6.570;2023-05-07T00:56:10;16.20;59.60
79711;DHT22;69465;51.630;6.570;2023-05-07T00:58:36;16.20;59.60
79711;DHT22;69465;51.630;6.570;2023-05-07T01:01:04;16.10;59.50
79711;DHT22;69465;51.630;6.570;2023-05-07T01:03:30;16.10;59.70
79711;DHT22;69465;51.630;6.570;2023-05-07T01:05:58;16.10;59.80
79711;DHT22;69465;51.630;6.570;2023-05-07T01:08:26;16.10;59.70
79711;DHT22;69465;51.630;6.570;2023-05-07T01:10:56;16.10;59.70
79711;DHT22;69465;51.630;6.570;2023-05-07T01:13:24;16.10;59.70
79711;DHT22;69465;51.630;6.570;2023-05-07T01:15:51;16.10;59.90
79711;DHT22;69465;51.630;6.570;2023-05-07T01:18:18;16.00;59.60
79711;DHT22;69465;51.630;6.570;2023-05-07T01:20:45;16.00;59.70
79711;DHT22;69465;51.630;6.570;2023-05-07T01:23:12;16.00;59.70
79711;DHT22;69465;51.630;6.570;2023-05-07T01:25:39;16.00;59.70
79711;DHT22;69465;51.630;6.570;2023-05-07T01:28:05;16.00;59.80
79711;DHT22;69465;51.630;6.570;2023-05-07T01:30:33;16.00;60.00
79711;DHT22;69465;51.630;6.570;2023-05-07T01:33:08;16.00;60.00
79711;DHT22;69465;51.630;6.570;2023-05-07T01:35:41;15.90;60.00
79711;DHT22;69465;51.630;6.570;2023-05-07T01:38:10;16.00;60.20
79711;DHT22;69465;51.630;6.570;2023-05-07T01:40:38;15.90;60.30
79711;DHT22;69465;51.630;6.570;2023-05-07T01:43:05;15.90;60.40
79711;DHT22;69465;51.630;6.570;2023-05-07T01:45:32;15.90;60.40
79711;DHT22;69465;51.630;6.570;2023-05-07T01:48:01;15.80;60.50
79711;DHT22;69465;51.630;6.570;2023-05-07T01:50:28;15.80;60.60
79711;DHT22;69465;51.630;6.570;2023-05-07T01:52:56;15.80;60.80
79711;DHT22;69465;51.630;6.570;2023-05-07T01:55:23;15.70;60.80
79711;DHT22;69465;51.630;6.570;2023-05-07T01:57:49;15.70;61.00
79711;DHT22;69465;51.630;6.570;2023-05-07T02:00:16;15.70;61.10
79711;DHT22;69465;51.630;6.570;2023-05-07T02:02:43;15.70;61.20
79711;DHT22;69465;51.630;6.570;2023-05-07T02:05:09;15.70;61.30
79711;DHT22;69465;51.630;6.570;2023-05-07T02:07:36;15.70;61.40
79711;DHT22;69465;51.630;6.570;2023-05-07T02:10:03;15.70;61.50
79711;DHT22;69465;51.630;6.570;2023-05-07T02:12:30;15.70;61.70
79711;DHT22;69465;51.630;6.570;2023-05-07T02:14:56;15.60;61.70
79711;DHT22;69465;51.630;6.570;2023-05-07T02:17:23;15.60;61.70
79711;DHT22;69465;51.630;6.570;2023-05-07T02:19:49;15.60;61.80
79711;DHT22;69465;51.630;6.570;2023-05-07T02:22:16;15.70;61.90
79711;DHT22;69465;51.630;6.570;2023-05-07T02:24:43;15.60;61.90
79711;DHT22;69465;51.630;6.570;2023-05-07T02:27:09;15.70;62.00
79711;DHT22;69465;51.630;6.570;2023-05-07T02:29:36;15.60;62.00
79711;DHT22;69465;51.630;6.570;2023-05-07T02:32:03;15.50;62.10
79711;DHT22;69465;51.630;6.570;2023-05-07T02:34:30;15.60;62.20
79711;DHT22;69465;51.630;6.570;2023-05-07T02:36:56;15.50;62.30
79711;DHT22;69465;51.630;6.570;2023-05-07T02:39:23;15.50;62.50
79711;DHT22;69465;51.630;6.570;2023-05-07T02:41:49;15.50;62.60
79711;DHT22;69465;51.630;6.570;2023-05-07T02:44:16;15.50;62.80
79711;DHT22;69465;51.630;6.570;2023-05-07T02:46:43;15.40;62.70
79711;DHT22;69465;51.630;6.570;2023-05-07T02:49:09;15.50;62.90
79711;DHT22;69465;51.630;6.570;2023-05-07T02:51:36;15.50;63.00
79711;DHT22;69465;51.630;6.570;2023-05-07T02:54:03;15.40;63.10
79711;DHT22;69465;51.630;6.570;2023-05-07T02:56:30;15.40;63.20
79711;DHT22;69465;51.630;6.570;2023-05-07T02:58:56;15.40;63.20
79711;DHT22;69465;51.630;6.570;2023-05-07T03:01:23;15.40;63.10
79711;DHT22;69465;51.630;6.570;2023-05-07T03:03:50;15.40;63.20
79711;DHT22;69465;51.630;6.570;2023-05-07T03:06:17;15.40;63.30
79711;DHT22;69465;51.630;6.570;2023-05-07T03:08:44;15.30;63.50
79711;DHT22;69465;51.630;6.570;2023-05-07T03:11:10;15.40;63.80
79711;DHT22;69465;51.630;6.570;2023-05-07T03:13:37;15.30;63.70
79711;DHT22;69465;51.630;6.570;2023-05-07T03:16:04;15.30;63.50
79711;DHT22;69465;51.630;6.570;2023-05-07T03:18:31;15.30;63.70
79711;DHT22;69465;51.630;6.570;2023-05-07T03:20:57;15.30;63.90
79711;DHT22;69465;51.630;6.570;2023-05-07T03:23:24;15.30;64.00
79711;DHT22;69465;51.630;6.570;2023-05-07T03:25:51;15.30;64.00
79711;DHT22;69465;51.630;6.570;2023-05-07T03:28:18;15.30;64.00
79711;DHT22;69465;51.630;6.570;2023-05-07T03:30:44;15.30;64.20
79711;DHT22;69465;51.630;6.570;2023-05-07T03:33:11;15.30;64.00
79711;DHT22;69465;51.630;6.570;2023-05-07T03:35:37;15.30;64.00
79711;DHT22;69465;51.630;6.570;2023-05-07T03:38:04;15.30;64.00
79711;DHT22;69465;51.630;6.570;2023-05-07T03:40:31;15.30;64.00
79711;DHT22;69465;51.630;6.570;2023-05-07T03:42:57;15.30;64.00
79711;DHT22;69465;51.630;6.570;2023-05-07T03:45:24;15.30;64.00
79711;DHT22;69465;51.630;6.570;2023-05-07T03:47:51;15.30;64.00
79711;DHT22;69465;51.630;6.570;2023-05-07T03:50:17;15.30;64.00
79711;DHT22;69465;51.630;6.570;2023-05-07T03:52:44;15.30;64.00
79711;DHT22;69465;51.630;6.570;2023-05-07T03:55:11;15.30;64.00
79711;DHT22;69465;51.630;6.570;2023-05-07T03:57:37;15.30;64.00
79711;DHT22;69465;51.630;6.570;2023-05-07T04:00:04;15.30;64.70
79711;DHT22;69465;51.630;6.570;2023-05-07T04:02:31;15.30;64.00
79711;DHT22;69465;51.630;6.570;2023-05-07T04:04:57;15.30;64.00
79711;DHT22;69465;51.630;6.570;2023-05-07T04:07:24;15.30;64.00
79711;DHT22;69465;51.630;6.570;2023-05-07T04:09:51;15.30;64.00
79711;DHT22;69465;51.630;6.570;2023-05-07T04:12:17;15.30;64.00
79711;DHT22;69465;51.630;6.570;2023-05-07T04:14:45;15.30;64.00
79711;DHT22;69465;51.630;6.570;2023-05-07T04:17:11;15.30;64.00
79711;DHT22;69465;51.630;6.570;2023-05-07T04:19:38;15.30;64.00
79711;DHT22;69465;51.630;6.570;2023-05-07T04:22:04;15.30;64.00
79711;DHT22;69465;51.630;6.570;2023-05-07T04:24:32;15.30;64.00
79711;DHT22;69465;51.630;6.570;2023-05-07T04:26:58;15.30;64.00
79711;DHT22;69465;51.630;6.570;2023-05-07T04:29:25;15.40;64.10
79711;DHT22;69465;51.630;6.570;2023-05-07T04:31:52;15.40;63.70
79711;DHT22;69465;51.630;6.570;2023-05-07T04:34:19;15.40;63.80
79711;DHT22;69465;51.630;6.570;2023-05-07T04:36:45;15.40;63.80
79711;DHT22;69465;51.630;6.570;2023-05-07T04:39:12;15.50;63.70
79711;DHT22;69465;51.630;6.570;2023-05-07T04:41:38;15.50;63.40
79711;DHT22;69465;51.630;6.570;2023-05-07T04:44:05;15.60;63.50
79711;DHT22;69465;51.630;6.570;2023-05-07T04:46:32;15.60;63.30
79711;DHT22;69465;51.630;6.570;2023-05-07T04:48:58;15.60;63.20
79711;DHT22;69465;51.630;6.570;2023-05-07T04:51:25;15.70;62.90
79711;DHT22;69465;51.630;6.570;2023-05-07T04:53:52;15.70;62.80
79711;DHT22;69465;51.630;6.570;2023-05-07T04:56:18;15.80;62.70
79711;DHT22;69465;51.630;6.570;2023-05-07T04:58:45;15.80;62.50
79711;DHT22;69465;51.630;6.570;2023-05-07T05:01:12;15.80;62.20
79711;DHT22;69465;51.630;6.570;2023-05-07T05:03:38;15.90;62.40
79711;DHT22;69465;51.630;6.570;2023-05-07T05:06:05;15.90;62.10
79711;DHT22;69465;51.630;6.570;2023-05-07T05:08:32;16.00;61.90
79711;DHT22;69465;51.630;6.570;2023-05-07T05:11:00;16.00;61.80
79711;DHT22;69465;51.630;6.570;2023-05-07T05:13:27;16.10;61.90
79711;DHT22;69465;51.630;6.570;2023-05-07T05:15:54;16.10;61.80
79711;DHT22;69465;51.630;6.570;2023-05-07T05:18:21;16.10;61.60
79711;DHT22;69465;51.630;6.570;2023-05-07T05:20:47;16.20;61.30
79711;DHT22;69465;51.630;6.570;2023-05-07T05:23:14;16.30;60.90
79711;DHT22;69465;51.630;6.570;2023-05-07T05:25:40;16.40;60.50
79711;DHT22;69465;51.630;6.570;2023-05-07T05:28:06;16.40;60.10
79711;DHT22;69465;51.630;6.570;2023-05-07T05:30:33;16.50;60.10
79711;DHT22;69465;51.630;6.570;2023-05-07T05:33:00;16.60;60.30
79711;DHT22;69465;51.630;6.570;2023-05-07T05:35:27;16.60;59.60
79711;DHT22;69465;51.630;6.570;2023-05-07T05:37:53;16.70;59.40
79711;DHT22;69465;51.630;6.570;2023-05-07T05:40:20;16.70;59.30
79711;DHT22;69465;51.630;6.570;2023-05-07T05:42:46;16.80;59.10
79711;DHT22;69465;51.630;6.570;2023-05-07T05:45:13;16.80;58.90
79711;DHT22;69465;51.630;6.570;2023-05-07T05:47:40;16.90;58.70
79711;DHT22;69465;51.630;6.570;2023-05-07T05:50:07;17.00;58.40
79711;DHT22;69465;51.630;6.570;2023-05-07T05:52:34;17.20;57.90
79711;DHT22;69465;51.630;6.570;2023-05-07T05:55:01;17.50;57.00
79711;DHT22;69465;51.630;6.570;2023-05-07T05:57:27;17.90;56.50
79711;DHT22;69465;51.630;6.570;2023-05-07T05:59:54;18.20;56.00
79711;DHT22;69465;51.630;6.570;2023-05-07T06:02:21;18.40;54.60
79711;DHT22;69465;51.630;6.570;2023-05-07T06:04:47;18.50;53.90
79711;DHT22;69465;51.630;6.570;2023-05-07T06:07:14;18.50;53.70
79711;DHT22;69465;51.630;6.570;2023-05-07T06:09:41;18.60;53.30
79711;DHT22;69465;51.630;6.570;2023-05-07T06:12:07;18.70;53.50
79711;DHT22;69465;51.630;6.570;2023-05-07T06:14:34;18.80;52.90
79711;DHT22;69465;51.630;6.570;2023-05-07T06:17:01;18.80;52.90
79711;DHT22;69465;51.630;6.570;2023-05-07T06:19:28;18.70;52.80
79711;DHT22;69465;51.630;6.570;2023-05-07T06:21:54;18.70;53.30
79711;DHT22;69465;51.630;6.570;2023-05-07T06:24:21;18.70;53.30
79711;DHT22;69465;51.630;6.570;2023-05-07T06:26:48;18.70;53.60
79711;DHT22;69465;51.630;6.570;2023-05-07T06:29:15;18.70;53.40
79711;DHT22;69465;51.630;6.570;2023-05-07T06:31:42;18.80;53.30
79711;DHT22;69465;51.630;6.570;2023-05-07T06:34:08;18.80;53.80
79711;DHT22;69465;51.630;6.570;2023-05-07T06:36:35;18.90;53.40
79711;DHT22;69465;51.630;6.570;2023-05-07T06:39:02;18.90;53.40
79711;DHT22;69465;51.630;6.570;2023-05-07T06:41:28;18.90;53.00
79711;DHT22;69465;51.630;6.570;2023-05-07T06:43:55;18.90;53.00
79711;DHT22;69465;51.630;6.570;2023-05-07T06:46:22;19.00;53.40
79711;DHT22;69465;51.630;6.570;2023-05-07T06:48:48;19.00;53.00
79711;DHT22;69465;51.630;6.570;2023-05-07T06:51:15;19.10;53.10
79711;DHT22;69465;51.630;6.570;2023-05-07T06:53:42;19.20;52.70
79711;DHT22;69465;51.630;6.570;2023-05-07T06:56:09;19.30;53.10
79711;DHT22;69465;51.630;6.570;2023-05-07T06:58:35;19.50;52.10
79711;DHT22;69465;51.630;6.570;2023-05-07T07:01:02;19.60;51.30
79711;DHT22;69465;51.630;6.570;2023-05-07T07:03:28;19.80;51.10
79711;DHT22;69465;51.630;6.570;2023-05-07T07:05:55;19.80;50.90
79711;DHT22;69465;51.630;6.570;2023-05-07T07:08:22;20.10;50.90
79711;DHT22;69465;51.630;6.570;2023-05-07T07:10:48;20.20;50.50
79711;DHT22;69465;51.630;6.570;2023-05-07T07:13:15;20.40;49.90
79711;DHT22;69465;51.630;6.570;2023-05-07T07:15:42;20.70;48.80
79711;DHT22;69465;51.630;6.570;2023-05-07T07:18:09;21.10;48.30
79711;DHT22;69465;51.630;6.570;2023-05-07T07:20:35;21.70;46.40
79711;DHT22;69465;51.630;6.570;2023-05-07T07:23:02;22.00;46.00
79711;DHT22;69465;51.630;6.570;2023-05-07T07:25:29;22.10;45.00
79711;DHT22;69465;51.630;6.570;2023-05-07T07:27:55;22.40;44.40
79711;DHT22;69465;51.630;6.570;2023-05-07T07:30:22;22.60;44.10
79711;DHT22;69465;51.630;6.570;2023-05-07T07:32:49;22.80;42.60
79711;DHT22;69465;51.630;6.570;2023-05-07T07:35:16;23.00;42.40
79711;DHT22;69465;51.630;6.570;2023-05-07T07:37:42;23.30;42.40
79711;DHT22;69465;51.630;6.570;2023-05-07T07:40:09;23.60;42.40
79711;DHT22;69465;51.630;6.570;2023-05-07T07:42:36;24.10;40.60
79711;DHT22;69465;51.630;6.570;2023-05-07T07:45:03;24.20;39.60
79711;DHT22;69465;51.630;6.570;2023-05-07T07:47:30;24.30;40.10
79711;DHT22;69465;51.630;6.570;2023-05-07T07:49:57;24.30;39.60
79711;DHT22;69465;51.630;6.570;2023-05-07T07:52:23;24.60;40.20
79711;DHT22;69465;51.630;6.570;2023-05-07T07:54:50;24.70;39.20
79711;DHT22;69465;51.630;6.570;2023-05-07T07:57:16;24.60;39.20
79711;DHT22;69465;51.630;6.570;2023-05-07T07:59:43;24.50;39.60
79711;DHT22;69465;51.630;6.570;2023-05-07T08:02:10;24.50;39.10
79711;DHT22;69465;51.630;6.570;2023-05-07T08:04:36;24.50;39.30
79711;DHT22;69465;51.630;6.570;2023-05-07T08:07:03;24.30;40.00
79711;DHT22;69465;51.630;6.570;2023-05-07T08:09:30;24.20;41.10
79711;DHT22;69465;51.630;6.570;2023-05-07T08:11:56;24.30;40.60
79711;DHT22;69465;51.630;6.570;2023-05-07T08:14:23;24.40;39.70
79711;DHT22;69465;51.630;6.570;2023-05-07T08:16:50;24.60;40.50
79711;DHT22;69465;51.630;6.570;2023-05-07T08:19:16;25.00;38.90
79711;DHT22;69465;51.630;6.570;2023-05-07T08:21:43;25.20;39.00
79711;DHT22;69465;51.630;6.570;2023-05-07T08:24:09;25.50;38.10
79711;DHT22;69465;51.630;6.570;2023-05-07T08:26:36;25.70;37.80
79711;DHT22;69465;51.630;6.570;2023-05-07T08:29:03;25.60;37.10
79711;DHT22;69465;51.630;6.570;2023-05-07T08:31:29;25.40;37.30
79711;DHT22;69465;51.630;6.570;2023-05-07T08:33:57;25.30;37.70
79711;DHT22;69465;51.630;6.570;2023-05-07T08:36:24;25.10;37.10
79711;DHT22;69465;51.630;6.570;2023-05-07T08:38:51;24.90;38.00
79711;DHT22;69465;51.630;6.570;2023-05-07T08:41:18;24.90;38.80
79711;DHT22;69465;51.630;6.570;2023-05-07T08:43:48;24.80;38.80
79711;DHT22;69465;51.630;6.570;2023-05-07T08:46:22;24.90;37.60
79711;DHT22;69465;51.630;6.570;2023-05-07T08:48:50;24.80;37.90
79711;DHT22;69465;51.630;6.570;2023-05-07T08:51:18;24.90;38.50
79711;DHT22;69465;51.630;6.570;2023-05-07T08:53:47;25.10;36.80
79711;DHT22;69465;51.630;6.570;2023-05-07T08:56:14;25.40;38.30
79711;DHT22;69465;51.630;6.570;2023-05-07T08:58:44;26.00;35.30
79711;DHT22;69465;51.630;6.570;2023-05-07T09:01:15;26.30;35.60
79711;DHT22;69465;51.630;6.570;2023-05-07T09:03:46;26.70;34.50
79711;DHT22;69465;51.630;6.570;2023-05-07T09:06:13;27.30;34.80
79711;DHT22;69465;51.630;6.570;2023-05-07T09:08:40;27.50;32.60
79711;DHT22;69465;51.630;6.570;2023-05-07T09:11:07;27.40;31.80
79711;DHT22;69465;51.630;6.570;2023-05-07T09:13:33;27.20;33.10
79711;DHT22;69465;51.630;6.570;2023-05-07T09:16:11;27.10;33.40
79711;DHT22;69465;51.630;6.570;2023-05-07T09:18:44;27.30;32.60
79711;DHT22;69465;51.630;6.570;2023-05-07T09:21:14;27.70;31.60
79711;DHT22;69465;51.630;6.570;2023-05-07T09:23:41;28.10;31.90
79711;DHT22;69465;51.630;6.570;2023-05-07T09:26:08;28.70;30.70
79711;DHT22;69465;51.630;6.570;2023-05-07T09:28:35;29.40;30.00
79711;DHT22;69465;51.630;6.570;2023-05-07T09:31:04;30.00;28.10
79711;DHT22;69465;51.630;6.570;2023-05-07T09:33:30;30.50;27.50
79711;DHT22;69465;51.630;6.570;2023-05-07T09:35:57;30.70;28.00
79711;DHT22;69465;51.630;6.570;2023-05-07T09:38:23;31.00;27.80
79711;DHT22;69465;51.630;6.570;2023-05-07T09:41:06;31.00;27.40
79711;DHT22;69465;51.630;6.570;2023-05-07T09:43:34;31.40;26.90
79711;DHT22;69465;51.630;6.570;2023-05-07T09:46:15;31.50;26.20
79711;DHT22;69465;51.630;6.570;2023-05-07T09:48:43;31.70;25.90
79711;DHT22;69465;51.630;6.570;2023-05-07T09:51:33;31.50;25.50
79711;DHT22;69465;51.630;6.570;2023-05-07T09:54:04;31.30;26.20
79711;DHT22;69465;51.630;6.570;2023-05-07T09:56:31;31.10;26.90
79711;DHT22;69465;51.630;6.570;2023-05-07T09:59:03;30.90;26.50
79711;DHT22;69465;51.630;6.570;2023-05-07T10:01:31;30.60;27.50
79711;DHT22;69465;51.630;6.570;2023-05-07T10:03:58;30.40;27.50
79711;DHT22;69465;51.630;6.570;2023-05-07T10:06:25;30.10;26.90
79711;DHT22;69465;51.630;6.570;2023-05-07T10:08:52;30.20;28.00
79711;DHT22;69465;51.630;6.570;2023-05-07T10:11:20;30.20;27.80
79711;DHT22;69465;51.630;6.570;2023-05-07T10:13:48;30.50;29.20
79711;DHT22;69465;51.630;6.570;2023-05-07T10:16:14;30.80;26.90
79711;DHT22;69465;51.630;6.570;2023-05-07T10:18:41;31.10;25.70
79711;DHT22;69465;51.630;6.570;2023-05-07T10:21:20;31.10;26.30
79711;DHT22;69465;51.630;6.570;2023-05-07T10:23:53;31.10;25.40
79711;DHT22;69465;51.630;6.570;2023-05-07T10:26:21;30.90;26.90
79711;DHT22;69465;51.630;6.570;2023-05-07T10:28:51;30.70;26.00
79711;DHT22;69465;51.630;6.570;2023-05-07T10:31:52;30.50;25.90
79711;DHT22;69465;51.630;6.570;2023-05-07T10:34:25;30.20;26.40
79711;DHT22;69465;51.630;6.570;2023-05-07T10:36:53;29.90;26.90
79711;DHT22;69465;51.630;6.570;2023-05-07T10:39:21;29.60;29.10
79711;DHT22;69465;51.630;6.570;2023-05-07T10:41:48;29.70;28.50
79711;DHT22;69465;51.630;6.570;2023-05-07T10:44:28;29.80;26.90
79711;DHT22;69465;51.630;6.570;2023-05-07T10:52:30;29.60;26.60
79711;DHT22;69465;51.630;6.570;2023-05-07T10:57:41;28.80;27.50
79711;DHT22;69465;51.630;6.570;2023-05-07T11:03:07;28.30;28.50
79711;DHT22;69465;51.630;6.570;2023-05-07T11:05:35;28.50;29.90
79711;DHT22;69465;51.630;6.570;2023-05-07T11:08:04;28.70;28.40
79711;DHT22;69465;51.630;6.570;2023-05-07T11:10:49;28.70;28.60
79711;DHT22;69465;51.630;6.570;2023-05-07T11:13:16;28.70;27.00
79711;DHT22;69465;51.630;6.570;2023-05-07T11:15:47;28.60;28.60
79711;DHT22;69465;51.630;6.570;2023-05-07T11:18:16;28.30;27.00
79711;DHT22;69465;51.630;6.570;2023-05-07T11:20:54;28.20;27.80
79711;DHT22;69465;51.630;6.570;2023-05-07T11:26:10;28.00;28.70
79711;DHT22;69465;51.630;6.570;2023-05-07T11:28:39;28.00;29.60
79711;DHT22;69465;51.630;6.570;2023-05-07T11:31:06;28.10;28.80
79711;DHT22;69465;51.630;6.570;2023-05-07T11:33:34;28.30;27.90
79711;DHT22;69465;51.630;6.570;2023-05-07T11:36:02;28.40;26.90
79711;DHT22;69465;51.630;6.570;2023-05-07T11:38:30;28.30;27.00
79711;DHT22;69465;51.630;6.570;2023-05-07T11:40:58;28.30;28.30
79711;DHT22;69465;51.630;6.570;2023-05-07T11:43:26;28.30;28.20
79711;DHT22;69465;51.630;6.570;2023-05-07T11:45:52;28.30;27.80
79711;DHT22;69465;51.630;6.570;2023-05-07T11:48:21;28.40;27.80
79711;DHT22;69465;51.630;6.570;2023-05-07T11:51:03;28.40;27.40
79711;DHT22;69465;51.630;6.570;2023-05-07T11:53:38;28.60;27.00
79711;DHT22;69465;51.630;6.570;2023-05-07T11:56:09;28.50;26.40
79711;DHT22;69465;51.630;6.570;2023-05-07T11:58:36;28.40;27.20
79711;DHT22;69465;51.630;6.570;2023-05-07T12:01:04;28.30;27.70
79711;DHT22;69465;51.630;6.570;2023-05-07T12:03:30;28.10;28.20
79711;DHT22;69465;51.630;6.570;2023-05-07T12:06:01;28.00;27.40
79711;DHT22;69465;51.630;6.570;2023-05-07T12:08:28;28.00;27.10
79711;DHT22;69465;51.630;6.570;2023-05-07T12:10:55;27.90;27.50
79711;DHT22;69465;51.630;6.570;2023-05-07T12:13:24;27.90;28.70
79711;DHT22;69465;51.630;6.570;2023-05-07T12:15:53;27.90;26.70
79711;DHT22;69465;51.630;6.570;2023-05-07T12:18:20;27.90;26.10
79711;DHT22;69465;51.630;6.570;2023-05-07T12:20:48;27.80;28.10
79711;DHT22;69465;51.630;6.570;2023-05-07T12:23:16;27.80;27.60
79711;DHT22;69465;51.630;6.570;2023-05-07T12:25:43;27.80;26.90
79711;DHT22;69465;51.630;6.570;2023-05-07T12:28:18;27.80;27.60
79711;DHT22;69465;51.630;6.570;2023-05-07T12:30:47;27.70;27.30
79711;DHT22;69465;51.630;6.570;2023-05-07T12:33:18;27.80;29.50
79711;DHT22;69465;51.630;6.570;2023-05-07T12:35:45;27.70;26.80
79711;DHT22;69465;51.630;6.570;2023-05-07T12:38:13;27.60;28.40
79711;DHT22;69465;51.630;6.570;2023-05-07T12:40:45;27.40;26.70
79711;DHT22;69465;51.630;6.570;2023-05-07T12:43:19;27.30;28.00
79711;DHT22;69465;51.630;6.570;2023-05-07T12:45:50;27.20;28.60
79711;DHT22;69465;51.630;6.570;2023-05-07T12:48:17;26.90;27.80
79711;DHT22;69465;51.630;6.570;2023-05-07T12:50:45;26.80;27.60
79711;DHT22;69465;51.630;6.570;2023-05-07T12:53:12;26.70;28.10
79711;DHT22;69465;51.630;6.570;2023-05-07T12:55:43;26.60;29.10
79711;DHT22;69465;51.630;6.570;2023-05-07T12:58:36;26.60;29.60
79711;DHT22;69465;51.630;6.570;2023-05-07T13:01:05;26.40;29.10
79711;DHT22;69465;51.630;6.570;2023-05-07T13:03:36;26.30;29.30
79711;DHT22;69465;51.630;6.570;2023-05-07T13:06:05;26.30;30.40
79711;DHT22;69465;51.630;6.570;2023-05-07T13:08:34;26.40;29.50
79711;DHT22;69465;51.630;6.570;2023-05-07T13:11:02;26.40;29.80
79711;DHT22;69465;51.630;6.570;2023-05-07T13:13:34;26.40;29.30
79711;DHT22;69465;51.630;6.570;2023-05-07T13:16:02;26.30;29.20
79711;DHT22;69465;51.630;6.570;2023-05-07T13:18:32;26.10;29.20
79711;DHT22;69465;51.630;6.570;2023-05-07T13:21:01;26.00;29.60
79711;DHT22;69465;51.630;6.570;2023-05-07T13:23:28;25.80;29.90
79711;DHT22;69465;51.630;6.570;2023-05-07T13:25:55;25.60;29.40
79711;DHT22;69465;51.630;6.570;2023-05-07T13:28:23;25.50;30.50
79711;DHT22;69465;51.630;6.570;2023-05-07T13:30:52;25.50;29.40
79711;DHT22;69465;51.630;6.570;2023-05-07T13:33:19;25.50;29.50
79711;DHT22;69465;51.630;6.570;2023-05-07T13:35:45;25.40;29.90
79711;DHT22;69465;51.630;6.570;2023-05-07T13:38:12;25.30;31.40
79711;DHT22;69465;51.630;6.570;2023-05-07T13:40:39;25.30;30.20
79711;DHT22;69465;51.630;6.570;2023-05-07T13:43:05;25.20;30.80
79711;DHT22;69465;51.630;6.570;2023-05-07T13:45:32;25.10;31.30
79711;DHT22;69465;51.630;6.570;2023-05-07T13:47:59;25.00;31.30
79711;DHT22;69465;51.630;6.570;2023-05-07T13:50:26;25.00;32.70
79711;DHT22;69465;51.630;6.570;2023-05-07T13:52:52;24.90;32.60
79711;DHT22;69465;51.630;6.570;2023-05-07T13:55:20;24.70;32.20
79711;DHT22;69465;51.630;6.570;2023-05-07T13:57:53;24.60;32.40
79711;DHT22;69465;51.630;6.570;2023-05-07T14:00:21;24.50;32.70
79711;DHT22;69465;51.630;6.570;2023-05-07T14:02:48;24.50;33.40
79711;DHT22;69465;51.630;6.570;2023-05-07T14:05:15;24.40;33.40
79711;DHT22;69465;51.630;6.570;2023-05-07T14:07:41;24.40;33.40
79711;DHT22;69465;51.630;6.570;2023-05-07T14:10:08;24.30;34.10
79711;DHT22;69465;51.630;6.570;2023-05-07T14:12:36;24.30;34.30
79711;DHT22;69465;51.630;6.570;2023-05-07T14:15:03;24.20;33.70
79711;DHT22;69465;51.630;6.570;2023-05-07T14:17:30;24.20;33.90
79711;DHT22;69465;51.630;6.570;2023-05-07T14:19:57;24.10;33.40
79711;DHT22;69465;51.630;6.570;2023-05-07T14:22:24;24.00;34.30
79711;DHT22;69465;51.630;6.570;2023-05-07T14:24:50;24.00;35.00
79711;DHT22;69465;51.630;6.570;2023-05-07T14:27:31;24.00;34.90
79711;DHT22;69465;51.630;6.570;2023-05-07T14:29:58;23.90;35.30
79711;DHT22;69465;51.630;6.570;2023-05-07T14:32:25;23.90;35.30
79711;DHT22;69465;51.630;6.570;2023-05-07T14:34:51;23.70;35.20
79711;DHT22;69465;51.630;6.570;2023-05-07T14:37:18;23.60;35.70
79711;DHT22;69465;51.630;6.570;2023-05-07T14:39:44;23.60;36.00
79711;DHT22;69465;51.630;6.570;2023-05-07T14:42:15;23.60;36.20
79711;DHT22;69465;51.630;6.570;2023-05-07T14:44:42;23.70;36.40
79711;DHT22;69465;51.630;6.570;2023-05-07T14:47:08;23.70;35.60
79711;DHT22;69465;51.630;6.570;2023-05-07T14:49:35;23.70;35.80
79711;DHT22;69465;51.630;6.570;2023-05-07T14:52:01;23.60;35.30
79711;DHT22;69465;51.630;6.570;2023-05-07T14:54:28;23.50;36.10
79711;DHT22;69465;51.630;6.570;2023-05-07T14:56:58;23.50;35.70
79711;DHT22;69465;51.630;6.570;2023-05-07T14:59:24;23.50;36.10
79711;DHT22;69465;51.630;6.570;2023-05-07T15:01:51;23.50;36.50
79711;DHT22;69465;51.630;6.570;2023-05-07T15:04:18;23.60;36.00
79711;DHT22;69465;51.630;6.570;2023-05-07T15:06:44;23.60;36.20
79711;DHT22;69465;51.630;6.570;2023-05-07T15:09:11;23.60;36.10
79711;DHT22;69465;51.630;6.570;2023-05-07T15:11:38;23.70;36.50
79711;DHT22;69465;51.630;6.570;2023-05-07T15:14:04;23.90;36.40
79711;DHT22;69465;51.630;6.570;2023-05-07T15:16:30;24.00;36.90
79711;DHT22;69465;51.630;6.570;2023-05-07T15:18:57;24.00;36.50
79711;DHT22;69465;51.630;6.570;2023-05-07T15:21:24;24.10;35.90
79711;DHT22;69465;51.630;6.570;2023-05-07T15:23:52;24.10;36.60
79711;DHT22;69465;51.630;6.570;2023-05-07T15:26:19;24.00;37.00
79711;DHT22;69465;51.630;6.570;2023-05-07T15:28:46;23.90;36.70
79711;DHT22;69465;51.630;6.570;2023-05-07T15:31:12;23.90;36.90
79711;DHT22;69465;51.630;6.570;2023-05-07T15:33:39;23.90;37.10
79711;DHT22;69465;51.630;6.570;2023-05-07T15:36:06;23.80;37.50
79711;DHT22;69465;51.630;6.570;2023-05-07T15:38:32;23.60;37.70
79711;DHT22;69465;51.630;6.570;2023-05-07T15:40:59;23.50;39.00
79711;DHT22;69465;51.630;6.570;2023-05-07T15:43:25;23.30;39.20
79711;DHT22;69465;51.630;6.570;2023-05-07T15:45:52;23.10;39.30
79711;DHT22;69465;51.630;6.570;2023-05-07T15:48:18;22.80;39.90